Flight Track Log - Related Links

Times and Time Zones

All times are in EDT time to prevent confusion due to time zone crossing. See the CTA400 flight status page for this flight to view local times or setup timezone preferences in your user account.


Time Position Orientation Groundspeed Altitude Reporting Facility
EDT Latitude Longitude Course Direction KTS MPH feet Rate Location/Type
Mon 06:16:03 PM 35.1950 -101.7383 189° South 90 104 4,900  Level Albuquerque Center
Mon 06:17:04 PM 35.1622 -101.7450 189° South 98 113 6,000 1,073 Climbing Albuquerque Center
Mon 06:18:06 PM 35.1325 -101.7517 190° South 103 119 7,100 1,073 Climbing Albuquerque Center
Mon 06:19:07 PM 35.1022 -101.7556 186° South 108 124 8,200 1,033 Climbing Albuquerque Center
Mon 06:20:08 PM 35.0694 -101.7603 187° South 113 130 9,200 683 Climbing Albuquerque Center
Mon 06:21:10 PM 35.0347 -101.7600 180° South 122 140 9,600 244 Climbing Albuquerque Center
Mon 06:22:11 PM 34.9908 -101.7600 180° South 148 170 9,700  Climbing Albuquerque Center
Mon 06:23:13 PM 34.9422 -101.7608 181° South 169 194 9,600 -49 Descending Albuquerque Center
Mon 06:24:14 PM 34.8925 -101.7686 187° South 176 203 9,600 49 Level Albuquerque Center
Mon 06:25:15 PM 34.8339 -101.7708 182° South 177 204 9,700 98 Climbing Albuquerque Center
Mon 06:26:17 PM 34.7839 -101.7708 180° South 178 205 9,800 -49 Climbing Albuquerque Center
Mon 06:27:18 PM 34.7325 -101.7706 180° South 182 209 9,600 -98 Descending Albuquerque Center
Mon 06:28:20 PM 34.6817 -101.7703 180° South 183 211 9,600 -49 Level Albuquerque Center
Mon 06:29:21 PM 34.6325 -101.7750 185° South 181 208 9,500 -49 Descending Albuquerque Center
Mon 06:30:23 PM 34.5842 -101.7772 182° South 178 205 9,500 49 Level Albuquerque Center
Mon 06:31:24 PM 34.5350 -101.7769 180° South 176 203 9,600 49 Climbing Albuquerque Center
Mon 06:32:26 PM 34.4872 -101.7750 178° South 175 201 9,600 49 Level Albuquerque Center
Mon 06:33:27 PM 34.4256 -101.7786 183° South 179 206 9,700  Climbing Albuquerque Center
Mon 06:34:28 PM 34.3750 -101.7797 181° South 182 209 9,600  Descending Albuquerque Center
Mon 06:34:49 PM 34.3597 -101.7831 190° South 181 208 9,700  Climbing Fort Worth Center
Mon 06:35:21 PM 34.3283 -101.7892 189° South 179 206 9,600 -100 Descending Fort Worth Center
Mon 06:35:49 PM 34.3056 -101.7881 178° South 176 203 9,600  Level Fort Worth Center
Mon 06:36:21 PM 34.2822 -101.7917 187° South 177 204 9,600 -200 Level Fort Worth Center
Mon 06:36:49 PM 34.2614 -101.7958 189° South 176 203 9,400 -98 Descending Fort Worth Center
Mon 06:37:22 PM 34.2319 -101.8017 189° South 178 205 9,500  Climbing Fort Worth Center
Mon 06:37:49 PM 34.2067 -101.8081 192° South 184 212 9,400 -98 Descending Fort Worth Center
Mon 06:38:23 PM 34.1814 -101.8117 187° South 180 207 9,400 -200 Level Fort Worth Center
Mon 06:38:49 PM 34.1625 -101.8158 190° South 184 212 9,200 -200 Descending Fort Worth Center
Mon 06:39:23 PM 34.1289 -101.8217 188° South 180 207 9,200 -200 Level Fort Worth Center
Mon 06:39:49 PM 34.1103 -101.8233 184° South 184 212 9,000 -492 Descending Fort Worth Center
Mon 06:40:24 PM 34.0808 -101.8292 189° South 176 203 8,700 -500 Descending Fort Worth Center
Mon 06:40:49 PM 34.0661 -101.8311 186° South 184 212 8,500 -500 Descending Fort Worth Center
Mon 06:41:24 PM 34.0306 -101.8342 184° South 180 207 8,200 -400 Descending Fort Worth Center
Mon 06:41:49 PM 34.0097 -101.8306 172° South 184 212 8,100 -295 Descending Fort Worth Center
Mon 06:42:25 PM 33.9806 -101.8292 178° South 177 204 7,900 -300 Descending Fort Worth Center
Mon 06:42:49 PM 33.9681 -101.8311 187° South 177 204 7,800 -393 Descending Fort Worth Center
Mon 06:43:26 PM 33.9325 -101.8317 181° South 172 198 7,500 -500 Descending Fort Worth Center
Mon 06:43:49 PM 33.9136 -101.8333 184° South 177 204 7,300 -500 Descending Fort Worth Center
Mon 06:44:26 PM 33.8844 -101.8317 177° South 169 194 7,000 -500 Descending Fort Worth Center
Mon 06:44:49 PM 33.8742 -101.8289 167° South 177 204 6,800 -689 Descending Fort Worth Center
Mon 06:45:27 PM 33.8386 -101.8319 184° South 164 189 6,300 -700 Descending Fort Worth Center
Mon 06:45:49 PM 33.8219 -101.8311 178° South 177 204 6,100 -700 Descending Fort Worth Center
Mon 06:46:27 PM 33.7947 -101.8322 182° South 161 185 5,600 -700 Descending Fort Worth Center
Mon 06:46:49 PM 33.7844 -101.8292 166° South 171 197 5,400 -787 Descending Fort Worth Center
Mon 06:47:28 PM 33.7550 -101.8328 186° South 138 159 4,800 -720 Descending Fort Worth Center
Mon 06:48:29 PM 33.7175 -101.8308 178° South 127 146 4,200 -645 Descending Fort Worth Center
Mon 06:49:29 PM 33.6842 -101.8317 181° South 117 135 3,500 -700 Descending Fort Worth Center
Mon 06:51:00 PM 33.6637 -101.8206 187° South  Level Estimated

Login

Don't have an account? Register now (free) for customized features, flight alerts, and more!